MMGL

Don Miguel Hidalgo Y Costilla International Airport

Guadalajara, Mexico
TAF MMGL 170423Z 1706/1812 00000KT P6SM SKC TX25/1722Z TN06/1712Z FM171800 24008KT P6SM SCT300 TEMPO 1721/1801 SCT025 BKN300 FM180700 08005KT P6SM SCT250
Issued Valid From Valid To
Nov-17 @ 04:23 UTC
(5 hours ago)
Nov-17 @ 06:00 UTC
(3 hours ago)
Nov-18 @ 12:00 UTC
(-1 days ago)
Nov-17 @ 06:00 to Nov-17 @ 18:00
TAF MMGL 170423Z 1706/1812 00000KT P6SM SKC TX25/1722Z TN06/1712Z
Visibility Clouds
Greater than 6 miles
  • Clear skies
From Nov-17 @ 18:00 to Nov-18 @ 07:00
FM171800 24008KT P6SM SCT300
Wind Visibility Clouds
240° at 8 knots Greater than 6 miles
  • Scattered at 30,000' AGL
Temporary Nov-17 @ 21:00 to Nov-18 @ 01:00
TEMPO 1721/1801 SCT025 BKN300
Clouds
  • Scattered at 2,500' AGL
  • Broken at 30,000' AGL
From Nov-18 @ 07:00 to Nov-18 @ 12:00
FM180700 08005KT P6SM SCT250
Wind Visibility Clouds
80° at 5 knots Greater than 6 miles
  • Scattered at 25,000' AGL
TAF MMGL 170423Z 1706/1812 00000KT P6SM SKC TX25/1722Z TN06/1712Z FM171800 24008KT P6SM SCT300 TEMPO 1721/1801 SCT025 BKN300 FM180700 08005KT P6SM SCT250
Issued Nov-17 @ 04:23 UTC
(5 hours ago)
Valid From Nov-17 @ 06:00 UTC
(3 hours ago)
Valid To Nov-18 @ 12:00 UTC
(-1 days ago)
Nov-17 @ 06:00 - Nov-17 @ 18:00
Clouds
  • Clear skies
From Nov-17 @ 18:00 - Nov-18 @ 07:00
Wind Visibility
240° at 8 knots Greater than 6 miles
Clouds
  • Scattered at 30,000' AGL
Temporary Nov-17 @ 21:00 - Nov-18 @ 01:00
Clouds
  • Scattered at 2,500' AGL
  • Broken at 30,000' AGL
From Nov-18 @ 07:00 - Nov-18 @ 12:00
Wind Visibility
80° at 5 knots Greater than 6 miles
Clouds
  • Scattered at 25,000' AGL